Accueil
METAR-TAF:

METAR-TAF

Aéroports :

Foggia, Italie

latitude: 41-32N, longitude: 015-43E, altitude: 57 m

Observation

Le bulletin a été fait il y a 25 minutes, à 08:55 UTC
Vent 8 kt de est/sud-est
Température 13°C
Humidité 77%
Pression 1007 hPa
Visibilité 10 km ou plus
Nuages épars à une hauteur de 6000 ft

METAR: LIBA 050855Z 12008KT 9999 SCT060 13/09 Q1007 RMK BKN SCT100 VIS MIN 9999 WIND THR11 11008KT WIND THR29 /////KT BLU

Heure: 10:20 (09:20 UTC)

Prévision

Le bulletin a été fait il y a 1 heure et 20 minutes, à 08:00 UTC
Prévision valable du 05 à 09 UTC au 05 à 18 UTC
Vent 13 kt de sud-est
Visibilité 10 km ou plus
Quelques nuages à une hauteur de 3000 ft
Evoluant progressivement
du 05 à 16 UTC au 05 à 18 UTC
Visibilité: 7000 m
Nuages épars à une hauteur de 2000 ft

TAF: LIBA 050800Z 0509/0518 13013KT 9999 FEW030 BECMG 0516/0518 7000 SCT020

Observations et prévisions météorologiques de plus de 4000 aéroports (messages METAR et TAF).

Les stations disponibles sont représentées par des disques jaunes et rouges sur la carte.

Passer la souris dessus pour voir le nom de la station.

Cliquer dessus pour voir les observations et prévisions météorologiques.

Pour changer de carte: cliquez sur les boutons verts avec une croix noire pour zoomer, sur le bouton vert avec un tiret pour effectuer un zoom arrière, ou sur les flèches vertes pour les cartes adjacentes.


METAR-TAF: